sensor_id;sensor_type;location;lat;lon;timestamp;P1;durP1;ratioP1;P2;durP2;ratioP2
76846;SDS011;65813;49.546;8.644;2023-10-19T03:45:39;17.67;;;10.55;;
76846;SDS011;65813;49.546;8.644;2023-10-19T03:49:44;16.27;;;10.57;;
76846;SDS011;65813;49.546;8.644;2023-10-19T03:53:46;15.05;;;9.63;;
76846;SDS011;65813;49.546;8.644;2023-10-19T03:57:55;15.88;;;9.02;;
76846;SDS011;65813;49.546;8.644;2023-10-19T04:01:55;14.13;;;8.87;;
76846;SDS011;65813;49.546;8.644;2023-10-19T04:05:56;16.05;;;9.48;;
76846;SDS011;65813;49.546;8.644;2023-10-19T04:10:00;11.70;;;7.07;;
76846;SDS011;65813;49.546;8.644;2023-10-19T04:14:06;13.60;;;8.18;;
76846;SDS011;65813;49.546;8.644;2023-10-19T04:18:09;11.85;;;7.53;;
76846;SDS011;65813;49.546;8.644;2023-10-19T04:22:09;14.43;;;7.15;;
76846;SDS011;65813;49.546;8.644;2023-10-19T04:26:21;12.52;;;6.60;;
76846;SDS011;65813;49.546;8.644;2023-10-19T04:30:22;11.02;;;7.72;;
76846;SDS011;65813;49.546;8.644;2023-10-19T04:34:22;12.57;;;6.67;;
76846;SDS011;65813;49.546;8.644;2023-10-19T04:38:24;9.63;;;6.75;;
76846;SDS011;65813;49.546;8.644;2023-10-19T04:42:24;12.90;;;6.27;;
76846;SDS011;65813;49.546;8.644;2023-10-19T04:46:27;10.52;;;6.93;;
76846;SDS011;65813;49.546;8.644;2023-10-19T04:50:29;11.93;;;6.63;;
76846;SDS011;65813;49.546;8.644;2023-10-19T04:54:29;9.63;;;6.10;;
76846;SDS011;65813;49.546;8.644;2023-10-19T04:58:29;11.80;;;6.67;;
76846;SDS011;65813;49.546;8.644;2023-10-19T05:02:30;10.90;;;6.00;;
76846;SDS011;65813;49.546;8.644;2023-10-19T05:06:30;10.17;;;6.50;;
76846;SDS011;65813;49.546;8.644;2023-10-19T05:10:31;12.97;;;6.13;;
76846;SDS011;65813;49.546;8.644;2023-10-19T05:14:31;10.63;;;6.77;;
76846;SDS011;65813;49.546;8.644;2023-10-19T05:18:31;11.97;;;6.90;;
76846;SDS011;65813;49.546;8.644;2023-10-19T05:22:32;11.67;;;7.03;;
76846;SDS011;65813;49.546;8.644;2023-10-19T05:26:35;10.85;;;6.38;;
76846;SDS011;65813;49.546;8.644;2023-10-19T05:30:37;10.75;;;6.82;;
76846;SDS011;65813;49.546;8.644;2023-10-19T05:34:37;8.85;;;5.95;;
76846;SDS011;65813;49.546;8.644;2023-10-19T05:38:37;9.20;;;5.93;;
76846;SDS011;65813;49.546;8.644;2023-10-19T05:42:38;11.27;;;6.50;;
76846;SDS011;65813;49.546;8.644;2023-10-19T05:46:40;16.40;;;9.05;;
76846;SDS011;65813;49.546;8.644;2023-10-19T05:50:40;10.65;;;6.57;;
76846;SDS011;65813;49.546;8.644;2023-10-19T05:54:42;9.90;;;6.22;;
76846;SDS011;65813;49.546;8.644;2023-10-19T05:58:43;13.97;;;7.27;;
76846;SDS011;65813;49.546;8.644;2023-10-19T06:02:45;11.23;;;6.93;;
76846;SDS011;65813;49.546;8.644;2023-10-19T06:06:46;13.80;;;6.53;;
76846;SDS011;65813;49.546;8.644;2023-10-19T06:10:51;10.75;;;6.65;;
76846;SDS011;65813;49.546;8.644;2023-10-19T06:18:52;11.15;;;6.30;;
76846;SDS011;65813;49.546;8.644;2023-10-19T06:22:53;11.53;;;6.77;;
76846;SDS011;65813;49.546;8.644;2023-10-19T06:26:55;11.15;;;6.70;;
76846;SDS011;65813;49.546;8.644;2023-10-19T06:30:56;13.90;;;7.33;;
76846;SDS011;65813;49.546;8.644;2023-10-19T06:34:56;11.13;;;7.03;;
76846;SDS011;65813;49.546;8.644;2023-10-19T06:38:57;11.10;;;6.25;;
76846;SDS011;65813;49.546;8.644;2023-10-19T06:42:58;12.52;;;6.68;;
76846;SDS011;65813;49.546;8.644;2023-10-19T06:46:58;11.68;;;6.72;;
76846;SDS011;65813;49.546;8.644;2023-10-19T06:50:59;10.67;;;6.50;;
76846;SDS011;65813;49.546;8.644;2023-10-19T06:55:00;10.68;;;6.57;;
76846;SDS011;65813;49.546;8.644;2023-10-19T06:59:00;12.87;;;6.63;;
76846;SDS011;65813;49.546;8.644;2023-10-19T07:03:00;10.23;;;5.97;;
76846;SDS011;65813;49.546;8.644;2023-10-19T07:07:02;10.90;;;6.20;;
76846;SDS011;65813;49.546;8.644;2023-10-19T07:11:02;10.47;;;6.70;;
76846;SDS011;65813;49.546;8.644;2023-10-19T07:15:06;9.52;;;6.63;;
76846;SDS011;65813;49.546;8.644;2023-10-19T07:19:07;9.65;;;5.68;;
76846;SDS011;65813;49.546;8.644;2023-10-19T07:23:09;10.82;;;6.13;;
76846;SDS011;65813;49.546;8.644;2023-10-19T07:27:18;10.82;;;5.95;;
76846;SDS011;65813;49.546;8.644;2023-10-19T07:31:19;9.85;;;5.82;;
76846;SDS011;65813;49.546;8.644;2023-10-19T07:35:21;8.48;;;5.25;;
76846;SDS011;65813;49.546;8.644;2023-10-19T07:39:22;8.90;;;5.50;;
76846;SDS011;65813;49.546;8.644;2023-10-19T07:43:23;10.10;;;5.95;;
76846;SDS011;65813;49.546;8.644;2023-10-19T07:47:25;10.02;;;5.70;;
76846;SDS011;65813;49.546;8.644;2023-10-19T07:51:25;12.70;;;5.80;;
76846;SDS011;65813;49.546;8.644;2023-10-19T07:55:25;9.33;;;5.77;;
76846;SDS011;65813;49.546;8.644;2023-10-19T07:59:26;11.43;;;5.85;;
76846;SDS011;65813;49.546;8.644;2023-10-19T08:03:27;9.82;;;5.72;;
76846;SDS011;65813;49.546;8.644;2023-10-19T08:07:27;9.02;;;4.53;;
76846;SDS011;65813;49.546;8.644;2023-10-19T08:11:28;9.85;;;4.68;;
76846;SDS011;65813;49.546;8.644;2023-10-19T08:15:28;11.00;;;4.88;;
76846;SDS011;65813;49.546;8.644;2023-10-19T08:19:30;9.40;;;5.00;;
76846;SDS011;65813;49.546;8.644;2023-10-19T08:23:31;8.38;;;4.78;;
76846;SDS011;65813;49.546;8.644;2023-10-19T08:27:31;6.50;;;4.80;;
76846;SDS011;65813;49.546;8.644;2023-10-19T08:31:33;7.40;;;4.30;;
76846;SDS011;65813;49.546;8.644;2023-10-19T08:35:36;9.00;;;4.38;;
76846;SDS011;65813;49.546;8.644;2023-10-19T08:39:36;8.38;;;4.97;;
76846;SDS011;65813;49.546;8.644;2023-10-19T08:43:36;8.93;;;4.67;;
76846;SDS011;65813;49.546;8.644;2023-10-19T08:51:56;9.60;;;4.25;;
76846;SDS011;65813;49.546;8.644;2023-10-19T08:55:59;7.45;;;3.95;;
76846;SDS011;65813;49.546;8.644;2023-10-19T09:00:00;7.43;;;4.07;;
76846;SDS011;65813;49.546;8.644;2023-10-19T09:04:02;9.70;;;4.18;;
76846;SDS011;65813;49.546;8.644;2023-10-19T09:08:05;7.68;;;4.10;;
76846;SDS011;65813;49.546;8.644;2023-10-19T09:12:07;7.72;;;4.28;;
76846;SDS011;65813;49.546;8.644;2023-10-19T09:16:08;7.18;;;3.60;;
76846;SDS011;65813;49.546;8.644;2023-10-19T09:20:10;7.43;;;4.00;;
76846;SDS011;65813;49.546;8.644;2023-10-19T09:24:11;6.80;;;4.50;;
76846;SDS011;65813;49.546;8.644;2023-10-19T09:28:11;8.30;;;4.13;;
76846;SDS011;65813;49.546;8.644;2023-10-19T09:32:13;6.85;;;3.95;;
76846;SDS011;65813;49.546;8.644;2023-10-19T09:36:14;7.73;;;4.33;;
76846;SDS011;65813;49.546;8.644;2023-10-19T09:40:14;8.95;;;4.43;;
76846;SDS011;65813;49.546;8.644;2023-10-19T09:44:15;8.20;;;3.87;;
76846;SDS011;65813;49.546;8.644;2023-10-19T09:48:21;7.43;;;3.92;;
76846;SDS011;65813;49.546;8.644;2023-10-19T09:52:22;7.07;;;4.27;;
76846;SDS011;65813;49.546;8.644;2023-10-19T09:56:32;6.53;;;3.95;;
76846;SDS011;65813;49.546;8.644;2023-10-19T10:00:43;10.70;;;4.47;;
76846;SDS011;65813;49.546;8.644;2023-10-19T10:04:45;6.85;;;3.55;;
76846;SDS011;65813;49.546;8.644;2023-10-19T10:08:46;6.43;;;3.00;;
76846;SDS011;65813;49.546;8.644;2023-10-19T10:12:48;6.68;;;3.35;;
76846;SDS011;65813;49.546;8.644;2023-10-19T10:16:51;7.32;;;3.42;;
76846;SDS011;65813;49.546;8.644;2023-10-19T10:21:07;6.10;;;3.50;;
76846;SDS011;65813;49.546;8.644;2023-10-19T10:25:29;4.75;;;2.55;;
76846;SDS011;65813;49.546;8.644;2023-10-19T10:29:34;4.60;;;2.28;;
76846;SDS011;65813;49.546;8.644;2023-10-19T10:33:41;4.90;;;2.80;;
76846;SDS011;65813;49.546;8.644;2023-10-19T10:41:57;6.80;;;2.88;;
76846;SDS011;65813;49.546;8.644;2023-10-19T10:46:07;5.38;;;2.63;;
76846;SDS011;65813;49.546;8.644;2023-10-19T10:50:08;4.50;;;2.50;;
76846;SDS011;65813;49.546;8.644;2023-10-19T10:54:10;4.88;;;2.50;;
76846;SDS011;65813;49.546;8.644;2023-10-19T10:58:17;4.55;;;2.60;;
76846;SDS011;65813;49.546;8.644;2023-10-19T11:02:18;5.63;;;2.88;;
76846;SDS011;65813;49.546;8.644;2023-10-19T11:06:21;5.90;;;2.85;;
76846;SDS011;65813;49.546;8.644;2023-10-19T11:10:27;5.47;;;2.67;;
76846;SDS011;65813;49.546;8.644;2023-10-19T11:14:28;6.10;;;2.38;;
76846;SDS011;65813;49.546;8.644;2023-10-19T11:22:37;4.20;;;2.05;;
76846;SDS011;65813;49.546;8.644;2023-10-19T11:26:48;5.60;;;3.38;;
76846;SDS011;65813;49.546;8.644;2023-10-19T11:30:49;4.10;;;2.37;;
76846;SDS011;65813;49.546;8.644;2023-10-19T11:34:49;3.75;;;2.30;;
76846;SDS011;65813;49.546;8.644;2023-10-19T11:38:50;4.32;;;2.40;;
76846;SDS011;65813;49.546;8.644;2023-10-19T11:42:55;4.35;;;2.47;;
76846;SDS011;65813;49.546;8.644;2023-10-19T11:46:56;7.00;;;2.60;;
76846;SDS011;65813;49.546;8.644;2023-10-19T11:50:57;4.18;;;2.67;;
76846;SDS011;65813;49.546;8.644;2023-10-19T11:54:57;5.50;;;3.30;;
76846;SDS011;65813;49.546;8.644;2023-10-19T11:58:58;5.28;;;3.08;;
76846;SDS011;65813;49.546;8.644;2023-10-19T12:02:59;4.13;;;2.63;;
76846;SDS011;65813;49.546;8.644;2023-10-19T12:06:59;5.25;;;2.83;;
76846;SDS011;65813;49.546;8.644;2023-10-19T12:11:01;4.15;;;2.80;;
76846;SDS011;65813;49.546;8.644;2023-10-19T12:15:04;9.60;;;3.60;;
76846;SDS011;65813;49.546;8.644;2023-10-19T12:19:08;6.60;;;3.10;;
76846;SDS011;65813;49.546;8.644;2023-10-19T12:23:08;6.30;;;2.92;;
76846;SDS011;65813;49.546;8.644;2023-10-19T12:27:09;6.20;;;3.13;;
76846;SDS011;65813;49.546;8.644;2023-10-19T12:31:09;6.43;;;3.00;;
76846;SDS011;65813;49.546;8.644;2023-10-19T12:35:10;5.05;;;2.70;;
76846;SDS011;65813;49.546;8.644;2023-10-19T12:39:11;7.00;;;4.28;;
76846;SDS011;65813;49.546;8.644;2023-10-19T12:43:32;6.00;;;4.10;;
76846;SDS011;65813;49.546;8.644;2023-10-19T12:47:34;6.38;;;4.55;;
76846;SDS011;65813;49.546;8.644;2023-10-19T12:51:35;6.87;;;3.70;;
76846;SDS011;65813;49.546;8.644;2023-10-19T12:55:36;8.73;;;4.93;;
76846;SDS011;65813;49.546;8.644;2023-10-19T12:59:39;8.27;;;4.80;;
76846;SDS011;65813;49.546;8.644;2023-10-19T13:03:40;7.72;;;5.28;;
76846;SDS011;65813;49.546;8.644;2023-10-19T13:07:40;9.17;;;5.60;;
76846;SDS011;65813;49.546;8.644;2023-10-19T13:11:40;9.70;;;6.60;;
76846;SDS011;65813;49.546;8.644;2023-10-19T13:15:44;11.75;;;7.40;;
76846;SDS011;65813;49.546;8.644;2023-10-19T13:19:47;11.75;;;8.23;;
76846;SDS011;65813;49.546;8.644;2023-10-19T13:23:51;11.48;;;7.38;;
76846;SDS011;65813;49.546;8.644;2023-10-19T13:27:51;12.93;;;8.25;;
76846;SDS011;65813;49.546;8.644;2023-10-19T13:31:53;14.40;;;8.25;;
76846;SDS011;65813;49.546;8.644;2023-10-19T13:35:54;12.57;;;7.95;;
76846;SDS011;65813;49.546;8.644;2023-10-19T13:39:54;12.77;;;8.67;;
76846;SDS011;65813;49.546;8.644;2023-10-19T13:43:55;15.45;;;8.82;;
76846;SDS011;65813;49.546;8.644;2023-10-19T13:47:55;18.67;;;9.37;;
76846;SDS011;65813;49.546;8.644;2023-10-19T13:51:56;12.40;;;8.75;;
76846;SDS011;65813;49.546;8.644;2023-10-19T13:55:56;15.57;;;9.43;;
76846;SDS011;65813;49.546;8.644;2023-10-19T13:59:57;16.77;;;9.03;;
76846;SDS011;65813;49.546;8.644;2023-10-19T14:03:57;16.60;;;9.32;;
76846;SDS011;65813;49.546;8.644;2023-10-19T14:07:57;16.97;;;9.60;;
76846;SDS011;65813;49.546;8.644;2023-10-19T14:11:58;14.02;;;9.10;;
76846;SDS011;65813;49.546;8.644;2023-10-19T14:15:58;10.75;;;7.70;;
76846;SDS011;65813;49.546;8.644;2023-10-19T14:19:59;14.50;;;9.60;;
76846;SDS011;65813;49.546;8.644;2023-10-19T14:23:59;17.77;;;10.47;;
76846;SDS011;65813;49.546;8.644;2023-10-19T14:27:59;16.67;;;10.33;;
76846;SDS011;65813;49.546;8.644;2023-10-19T14:32:00;14.02;;;9.00;;
76846;SDS011;65813;49.546;8.644;2023-10-19T14:36:01;15.40;;;9.80;;
76846;SDS011;65813;49.546;8.644;2023-10-19T14:40:03;12.43;;;8.75;;
76846;SDS011;65813;49.546;8.644;2023-10-19T14:44:03;15.27;;;9.88;;
76846;SDS011;65813;49.546;8.644;2023-10-19T14:48:06;15.27;;;9.85;;
76846;SDS011;65813;49.546;8.644;2023-10-19T14:52:10;14.85;;;8.77;;
76846;SDS011;65813;49.546;8.644;2023-10-19T14:56:10;19.47;;;10.03;;
76846;SDS011;65813;49.546;8.644;2023-10-19T15:00:12;13.57;;;9.13;;
76846;SDS011;65813;49.546;8.644;2023-10-19T15:04:21;13.45;;;8.50;;
76846;SDS011;65813;49.546;8.644;2023-10-19T15:08:22;12.67;;;8.00;;
76846;SDS011;65813;49.546;8.644;2023-10-19T15:12:27;14.52;;;8.88;;
76846;SDS011;65813;49.546;8.644;2023-10-19T15:16:27;12.53;;;8.00;;
76846;SDS011;65813;49.546;8.644;2023-10-19T15:20:28;19.10;;;12.47;;
76846;SDS011;65813;49.546;8.644;2023-10-19T15:24:38;15.98;;;8.23;;
76846;SDS011;65813;49.546;8.644;2023-10-19T15:28:38;12.57;;;8.43;;
76846;SDS011;65813;49.546;8.644;2023-10-19T15:32:39;12.93;;;8.53;;
76846;SDS011;65813;49.546;8.644;2023-10-19T15:36:43;36.88;;;20.75;;
76846;SDS011;65813;49.546;8.644;2023-10-19T15:40:43;12.43;;;8.33;;
76846;SDS011;65813;49.546;8.644;2023-10-19T15:44:47;8.18;;;4.65;;
76846;SDS011;65813;49.546;8.644;2023-10-19T15:48:50;9.15;;;4.65;;
76846;SDS011;65813;49.546;8.644;2023-10-19T15:52:51;9.52;;;4.70;;
76846;SDS011;65813;49.546;8.644;2023-10-19T15:56:51;11.77;;;7.47;;
76846;SDS011;65813;49.546;8.644;2023-10-19T16:00:52;6.60;;;3.60;;
76846;SDS011;65813;49.546;8.644;2023-10-19T16:04:52;9.33;;;4.13;;
76846;SDS011;65813;49.546;8.644;2023-10-19T16:08:52;10.30;;;4.43;;
76846;SDS011;65813;49.546;8.644;2023-10-19T16:12:52;7.27;;;3.27;;
76846;SDS011;65813;49.546;8.644;2023-10-19T16:16:53;9.33;;;4.93;;
76846;SDS011;65813;49.546;8.644;2023-10-19T16:20:54;12.27;;;6.85;;
76846;SDS011;65813;49.546;8.644;2023-10-19T16:24:54;9.33;;;5.73;;
76846;SDS011;65813;49.546;8.644;2023-10-19T16:28:55;8.43;;;5.70;;
76846;SDS011;65813;49.546;8.644;2023-10-19T16:32:55;8.17;;;5.13;;
76846;SDS011;65813;49.546;8.644;2023-10-19T16:36:57;7.15;;;5.45;;
76846;SDS011;65813;49.546;8.644;2023-10-19T16:40:58;5.95;;;4.22;;
76846;SDS011;65813;49.546;8.644;2023-10-19T16:44:59;4.70;;;2.88;;
76846;SDS011;65813;49.546;8.644;2023-10-19T16:49:00;5.07;;;3.13;;
76846;SDS011;65813;49.546;8.644;2023-10-19T16:53:00;4.10;;;3.07;;
76846;SDS011;65813;49.546;8.644;2023-10-19T16:57:01;3.97;;;2.40;;
76846;SDS011;65813;49.546;8.644;2023-10-19T17:01:04;4.70;;;2.73;;
76846;SDS011;65813;49.546;8.644;2023-10-19T17:05:05;4.80;;;2.42;;
76846;SDS011;65813;49.546;8.644;2023-10-19T17:09:13;3.65;;;2.08;;
76846;SDS011;65813;49.546;8.644;2023-10-19T17:13:21;5.80;;;2.85;;
76846;SDS011;65813;49.546;8.644;2023-10-19T17:17:21;5.47;;;2.80;;
76846;SDS011;65813;49.546;8.644;2023-10-19T17:21:22;5.68;;;2.13;;
76846;SDS011;65813;49.546;8.644;2023-10-19T17:25:23;4.97;;;2.35;;
76846;SDS011;65813;49.546;8.644;2023-10-19T17:29:24;8.45;;;3.65;;
76846;SDS011;65813;49.546;8.644;2023-10-19T17:33:26;12.50;;;4.43;;
76846;SDS011;65813;49.546;8.644;2023-10-19T17:37:27;4.65;;;2.00;;
76846;SDS011;65813;49.546;8.644;2023-10-19T17:41:28;6.33;;;3.37;;
76846;SDS011;65813;49.546;8.644;2023-10-19T17:45:28;8.15;;;3.22;;
76846;SDS011;65813;49.546;8.644;2023-10-19T17:49:28;4.28;;;1.90;;
76846;SDS011;65813;49.546;8.644;2023-10-19T17:53:29;4.38;;;2.35;;
76846;SDS011;65813;49.546;8.644;2023-10-19T17:57:30;5.53;;;2.80;;
76846;SDS011;65813;49.546;8.644;2023-10-19T18:01:33;6.78;;;3.63;;
76846;SDS011;65813;49.546;8.644;2023-10-19T18:05:35;13.25;;;5.80;;
76846;SDS011;65813;49.546;8.644;2023-10-19T18:09:36;12.10;;;5.13;;
76846;SDS011;65813;49.546;8.644;2023-10-19T18:13:39;5.35;;;3.00;;
76846;SDS011;65813;49.546;8.644;2023-10-19T18:17:40;5.45;;;3.15;;
76846;SDS011;65813;49.546;8.644;2023-10-19T18:21:40;8.63;;;4.60;;
76846;SDS011;65813;49.546;8.644;2023-10-19T18:25:41;4.90;;;3.10;;
76846;SDS011;65813;49.546;8.644;2023-10-19T18:29:43;4.30;;;3.05;;
76846;SDS011;65813;49.546;8.644;2023-10-19T18:33:44;4.53;;;3.00;;
76846;SDS011;65813;49.546;8.644;2023-10-19T18:37:44;5.67;;;2.70;;
76846;SDS011;65813;49.546;8.644;2023-10-19T18:41:44;8.77;;;3.92;;
76846;SDS011;65813;49.546;8.644;2023-10-19T18:45:45;9.93;;;4.80;;
76846;SDS011;65813;49.546;8.644;2023-10-19T18:49:46;8.43;;;4.10;;
76846;SDS011;65813;49.546;8.644;2023-10-19T18:53:46;4.45;;;2.80;;
76846;SDS011;65813;49.546;8.644;2023-10-19T18:57:46;5.67;;;3.30;;
76846;SDS011;65813;49.546;8.644;2023-10-19T19:01:47;4.37;;;2.50;;
76846;SDS011;65813;49.546;8.644;2023-10-19T19:05:48;4.53;;;2.40;;
76846;SDS011;65813;49.546;8.644;2023-10-19T19:09:49;4.82;;;2.40;;
76846;SDS011;65813;49.546;8.644;2023-10-19T19:13:50;4.68;;;2.80;;
76846;SDS011;65813;49.546;8.644;2023-10-19T19:17:50;6.87;;;3.87;;
76846;SDS011;65813;49.546;8.644;2023-10-19T19:21:50;4.53;;;2.40;;
76846;SDS011;65813;49.546;8.644;2023-10-19T19:25:51;4.10;;;2.20;;
76846;SDS011;65813;49.546;8.644;2023-10-19T19:29:51;4.55;;;2.63;;
76846;SDS011;65813;49.546;8.644;2023-10-19T19:33:52;4.68;;;2.42;;
76846;SDS011;65813;49.546;8.644;2023-10-19T19:37:53;6.07;;;3.15;;
76846;SDS011;65813;49.546;8.644;2023-10-19T19:41:55;6.18;;;3.00;;
76846;SDS011;65813;49.546;8.644;2023-10-19T19:45:55;8.10;;;3.60;;
76846;SDS011;65813;49.546;8.644;2023-10-19T19:49:56;5.78;;;2.85;;
76846;SDS011;65813;49.546;8.644;2023-10-19T19:53:57;6.83;;;2.03;;
76846;SDS011;65813;49.546;8.644;2023-10-19T19:57:57;6.97;;;3.67;;
76846;SDS011;65813;49.546;8.644;2023-10-19T20:01:58;5.87;;;3.00;;
76846;SDS011;65813;49.546;8.644;2023-10-19T20:05:58;4.03;;;2.22;;
76846;SDS011;65813;49.546;8.644;2023-10-19T20:09:59;3.80;;;2.17;;
76846;SDS011;65813;49.546;8.644;2023-10-19T20:13:59;3.97;;;2.33;;
76846;SDS011;65813;49.546;8.644;2023-10-19T20:18:00;4.13;;;2.20;;
76846;SDS011;65813;49.546;8.644;2023-10-19T20:22:01;7.93;;;2.72;;
76846;SDS011;65813;49.546;8.644;2023-10-19T20:26:03;3.95;;;2.50;;
76846;SDS011;65813;49.546;8.644;2023-10-19T20:30:04;5.27;;;2.50;;
76846;SDS011;65813;49.546;8.644;2023-10-19T20:34:04;7.22;;;2.70;;
76846;SDS011;65813;49.546;8.644;2023-10-19T20:38:06;4.40;;;2.95;;
76846;SDS011;65813;49.546;8.644;2023-10-19T20:42:09;4.40;;;2.20;;
76846;SDS011;65813;49.546;8.644;2023-10-19T20:46:09;6.20;;;2.60;;
76846;SDS011;65813;49.546;8.644;2023-10-19T20:50:09;4.00;;;2.40;;
76846;SDS011;65813;49.546;8.644;2023-10-19T20:54:10;4.20;;;2.33;;
76846;SDS011;65813;49.546;8.644;2023-10-19T20:58:11;6.22;;;2.67;;
76846;SDS011;65813;49.546;8.644;2023-10-19T21:02:12;3.92;;;2.53;;
76846;SDS011;65813;49.546;8.644;2023-10-19T21:06:13;4.18;;;2.22;;
76846;SDS011;65813;49.546;8.644;2023-10-19T21:10:14;4.35;;;2.70;;
76846;SDS011;65813;49.546;8.644;2023-10-19T21:14:18;5.00;;;2.50;;
